Charleston Air Force Base, SC (29404)

5:34 PM EDT on August 03, 2015 (GMT -0400)
Park Circle | | Change Station
CLOSE
Current Station
Personal Weather Station
Location: North Charleston, SC
Elevation: 20 ft
Nearby Weather Stations

Elev 20 ft 32.89 °N, 79.99 °W | Updated 9 seconds ago

Light Rain
Light Rain
80.6 °F
Feels Like 87 °F
N
0.0
Wind Variable Wind from North
Gusts 0.0 mph

Today
High -- | Low -- °F
--% Chance of Precip.
Yesterday
High -- | Low -- °F
Precip. -- in
6:35 AM 8:17 PM
Waning Gibbous, 84% visible
Pressure 29.92 in
Visibility 10.0 miles
Clouds Few 4000 ft
Scattered Clouds 5000 ft
Mostly Cloudy 10000 ft
Heat Index 87 °F
Dew Point 77 °F
Humidity 88%
Rainfall 0.91 in
Snow Depth Not available.
UV 3 out of 12
Pollen .80 out of 12
Air Quality Not available.
Flu Activity Not available.
METAR KCHS 032056Z 00000KT 10SM -RA FEW040 SCT050 BKN100 27/23 A2992 RMK AO2 RAB12 SLP132 P0000 60000 T02720233 58001

More Conditions Fewer Conditions

Pressure 29.92 in
Visibility 10.0 miles
Clouds Few 4000 ft
Scattered Clouds 5000 ft
Mostly Cloudy 10000 ft
Heat Index 87 °F
Dew Point 77 °F
Humidity 88%
Rainfall 0.91 in
Snow Depth Not available.
UV 3 out of 12
Pollen .80 out of 12
Air Quality Not available.
Flu Activity Not available.
METAR KCHS 032056Z 00000KT 10SM -RA FEW040 SCT050 BKN100 27/23 A2992 RMK AO2 RAB12 SLP132 P0000 60000 T02720233 58001

More Conditions Fewer Conditions

10-Day Weather Forecast

×

Almanac

Astronomy

Aug. 03, 2015 Rise Set
Actual Time
Civil Twilight
Nautical Twilight
Astronomical Twilight
Moon
Length of Visible Light
Length of Day
Tomorrow will be .
, % of the Moon is Illuminated

Today's Extremes

State Highs State Lows

Community

WunderPhotos

Upload Photos

1,843,772 photos uploaded!

WunderBlogs® & News

Nearby

Air Quality

  Air Quality AQ Index Pollutant
Not available.

Snow Depth

Station Depth Elevation

Earthquake Activity

City Distance Mag. Time & Date
Minimum magnitude displayed is 2.5.

Coastal Water Temperatures

Place Temperature

Stations

Nearby Weather Stations

Station Location Temp. Windchill Dew Point Humidity Wind Precip. Elev Updated Type